sensor_id;sensor_type;location;lat;lon;timestamp;P1;durP1;ratioP1;P2;durP2;ratioP2
32824;SDS011;51060;42.640;24.356;2023-05-28T00:02:20;11.88;;;10.70;;
32824;SDS011;51060;42.640;24.356;2023-05-28T00:04:46;10.38;;;9.00;;
32824;SDS011;51060;42.640;24.356;2023-05-28T00:07:12;11.88;;;10.02;;
32824;SDS011;51060;42.640;24.356;2023-05-28T00:09:37;11.15;;;9.65;;
32824;SDS011;51060;42.640;24.356;2023-05-28T00:12:03;14.55;;;11.48;;
32824;SDS011;51060;42.640;24.356;2023-05-28T00:14:29;12.85;;;11.00;;
32824;SDS011;51060;42.640;24.356;2023-05-28T00:16:55;10.38;;;9.27;;
32824;SDS011;51060;42.640;24.356;2023-05-28T00:19:21;12.48;;;10.18;;
32824;SDS011;51060;42.640;24.356;2023-05-28T00:21:47;11.13;;;9.73;;
32824;SDS011;51060;42.640;24.356;2023-05-28T00:24:13;11.27;;;9.50;;
32824;SDS011;51060;42.640;24.356;2023-05-28T00:26:38;14.82;;;11.43;;
32824;SDS011;51060;42.640;24.356;2023-05-28T00:29:04;13.50;;;11.40;;
32824;SDS011;51060;42.640;24.356;2023-05-28T00:31:29;14.75;;;12.00;;
32824;SDS011;51060;42.640;24.356;2023-05-28T00:33:55;12.43;;;11.07;;
32824;SDS011;51060;42.640;24.356;2023-05-28T00:36:21;12.23;;;10.40;;
32824;SDS011;51060;42.640;24.356;2023-05-28T00:38:47;12.73;;;10.35;;
32824;SDS011;51060;42.640;24.356;2023-05-28T00:41:17;13.43;;;10.40;;
32824;SDS011;51060;42.640;24.356;2023-05-28T00:43:44;13.30;;;10.95;;
32824;SDS011;51060;42.640;24.356;2023-05-28T00:46:09;13.55;;;11.55;;
32824;SDS011;51060;42.640;24.356;2023-05-28T00:48:35;10.00;;;9.00;;
32824;SDS011;51060;42.640;24.356;2023-05-28T00:51:01;8.50;;;6.53;;
32824;SDS011;51060;42.640;24.356;2023-05-28T00:53:27;7.15;;;6.10;;
32824;SDS011;51060;42.640;24.356;2023-05-28T00:55:53;7.13;;;6.00;;
32824;SDS011;51060;42.640;24.356;2023-05-28T00:58:19;6.18;;;5.57;;
32824;SDS011;51060;42.640;24.356;2023-05-28T01:00:45;7.18;;;6.13;;
32824;SDS011;51060;42.640;24.356;2023-05-28T01:03:11;6.85;;;6.15;;
32824;SDS011;51060;42.640;24.356;2023-05-28T01:05:37;5.80;;;5.20;;
32824;SDS011;51060;42.640;24.356;2023-05-28T01:08:03;6.80;;;6.10;;
32824;SDS011;51060;42.640;24.356;2023-05-28T01:10:31;6.68;;;5.95;;
32824;SDS011;51060;42.640;24.356;2023-05-28T01:12:58;6.07;;;5.47;;
32824;SDS011;51060;42.640;24.356;2023-05-28T01:15:25;6.70;;;6.00;;
32824;SDS011;51060;42.640;24.356;2023-05-28T01:17:56;6.20;;;5.53;;
32824;SDS011;51060;42.640;24.356;2023-05-28T01:20:24;6.28;;;5.57;;
32824;SDS011;51060;42.640;24.356;2023-05-28T01:22:54;7.60;;;6.30;;
32824;SDS011;51060;42.640;24.356;2023-05-28T01:25:20;6.55;;;5.85;;
32824;SDS011;51060;42.640;24.356;2023-05-28T01:27:47;9.82;;;7.95;;
32824;SDS011;51060;42.640;24.356;2023-05-28T01:30:13;7.82;;;5.60;;
32824;SDS011;51060;42.640;24.356;2023-05-28T01:32:38;5.47;;;4.97;;
32824;SDS011;51060;42.640;24.356;2023-05-28T01:35:05;5.18;;;4.68;;
32824;SDS011;51060;42.640;24.356;2023-05-28T01:37:31;5.15;;;4.65;;
32824;SDS011;51060;42.640;24.356;2023-05-28T01:39:58;5.45;;;4.70;;
32824;SDS011;51060;42.640;24.356;2023-05-28T01:42:25;5.78;;;4.60;;
32824;SDS011;51060;42.640;24.356;2023-05-28T01:44:51;4.97;;;4.57;;
32824;SDS011;51060;42.640;24.356;2023-05-28T01:47:17;6.82;;;4.53;;
32824;SDS011;51060;42.640;24.356;2023-05-28T01:49:42;6.18;;;4.32;;
32824;SDS011;51060;42.640;24.356;2023-05-28T01:52:08;5.82;;;5.03;;
32824;SDS011;51060;42.640;24.356;2023-05-28T01:54:34;7.78;;;5.20;;
32824;SDS011;51060;42.640;24.356;2023-05-28T01:57:00;5.25;;;4.28;;
32824;SDS011;51060;42.640;24.356;2023-05-28T01:59:26;5.03;;;4.35;;
32824;SDS011;51060;42.640;24.356;2023-05-28T02:01:52;5.45;;;4.75;;
32824;SDS011;51060;42.640;24.356;2023-05-28T02:04:18;5.03;;;4.60;;
32824;SDS011;51060;42.640;24.356;2023-05-28T02:06:44;4.20;;;3.80;;
32824;SDS011;51060;42.640;24.356;2023-05-28T02:09:11;5.75;;;3.83;;
32824;SDS011;51060;42.640;24.356;2023-05-28T02:11:36;5.13;;;4.50;;
32824;SDS011;51060;42.640;24.356;2023-05-28T02:14:02;4.07;;;3.67;;
32824;SDS011;51060;42.640;24.356;2023-05-28T02:16:30;3.78;;;3.35;;
32824;SDS011;51060;42.640;24.356;2023-05-28T02:18:56;4.35;;;3.95;;
32824;SDS011;51060;42.640;24.356;2023-05-28T02:21:23;3.38;;;3.05;;
32824;SDS011;51060;42.640;24.356;2023-05-28T02:23:49;4.80;;;4.30;;
32824;SDS011;51060;42.640;24.356;2023-05-28T02:26:15;7.32;;;4.70;;
32824;SDS011;51060;42.640;24.356;2023-05-28T02:28:41;5.43;;;4.53;;
32824;SDS011;51060;42.640;24.356;2023-05-28T02:31:10;5.13;;;4.63;;
32824;SDS011;51060;42.640;24.356;2023-05-28T02:33:37;7.05;;;4.80;;
32824;SDS011;51060;42.640;24.356;2023-05-28T02:36:03;6.53;;;5.38;;
32824;SDS011;51060;42.640;24.356;2023-05-28T02:38:29;5.22;;;4.72;;
32824;SDS011;51060;42.640;24.356;2023-05-28T02:40:55;6.22;;;5.63;;
32824;SDS011;51060;42.640;24.356;2023-05-28T02:43:20;5.40;;;4.90;;
32824;SDS011;51060;42.640;24.356;2023-05-28T02:45:46;5.25;;;4.72;;
32824;SDS011;51060;42.640;24.356;2023-05-28T02:48:11;6.03;;;5.05;;
32824;SDS011;51060;42.640;24.356;2023-05-28T02:50:37;5.18;;;4.68;;
32824;SDS011;51060;42.640;24.356;2023-05-28T02:53:02;5.60;;;4.70;;
32824;SDS011;51060;42.640;24.356;2023-05-28T02:55:28;6.93;;;5.70;;
32824;SDS011;51060;42.640;24.356;2023-05-28T02:57:54;6.25;;;5.45;;
32824;SDS011;51060;42.640;24.356;2023-05-28T03:00:19;6.38;;;5.78;;
32824;SDS011;51060;42.640;24.356;2023-05-28T03:02:45;7.82;;;5.35;;
32824;SDS011;51060;42.640;24.356;2023-05-28T03:05:10;5.50;;;5.00;;
32824;SDS011;51060;42.640;24.356;2023-05-28T03:07:36;5.15;;;4.65;;
32824;SDS011;51060;42.640;24.356;2023-05-28T03:10:02;5.43;;;4.35;;
32824;SDS011;51060;42.640;24.356;2023-05-28T03:12:28;3.60;;;3.30;;
32824;SDS011;51060;42.640;24.356;2023-05-28T03:14:53;4.55;;;3.42;;
32824;SDS011;51060;42.640;24.356;2023-05-28T03:17:19;4.57;;;4.10;;
32824;SDS011;51060;42.640;24.356;2023-05-28T03:19:44;4.45;;;4.05;;
32824;SDS011;51060;42.640;24.356;2023-05-28T03:22:10;4.40;;;4.00;;
32824;SDS011;51060;42.640;24.356;2023-05-28T03:24:36;5.82;;;4.60;;
32824;SDS011;51060;42.640;24.356;2023-05-28T03:27:04;4.85;;;3.47;;
32824;SDS011;51060;42.640;24.356;2023-05-28T03:29:30;4.53;;;4.13;;
32824;SDS011;51060;42.640;24.356;2023-05-28T03:31:56;4.53;;;4.13;;
32824;SDS011;51060;42.640;24.356;2023-05-28T03:34:22;5.35;;;4.85;;
32824;SDS011;51060;42.640;24.356;2023-05-28T03:36:49;6.13;;;5.25;;
32824;SDS011;51060;42.640;24.356;2023-05-28T03:39:15;5.72;;;4.72;;
32824;SDS011;51060;42.640;24.356;2023-05-28T03:41:43;4.35;;;3.75;;
32824;SDS011;51060;42.640;24.356;2023-05-28T03:44:10;2.70;;;1.92;;
32824;SDS011;51060;42.640;24.356;2023-05-28T03:46:36;3.38;;;2.95;;
32824;SDS011;51060;42.640;24.356;2023-05-28T03:49:02;2.33;;;2.13;;
32824;SDS011;51060;42.640;24.356;2023-05-28T03:51:27;3.13;;;2.83;;
32824;SDS011;51060;42.640;24.356;2023-05-28T03:53:53;1.70;;;1.60;;
32824;SDS011;51060;42.640;24.356;2023-05-28T03:56:19;2.25;;;1.73;;
32824;SDS011;51060;42.640;24.356;2023-05-28T03:58:45;2.92;;;2.72;;
32824;SDS011;51060;42.640;24.356;2023-05-28T04:01:13;5.10;;;2.45;;
32824;SDS011;51060;42.640;24.356;2023-05-28T04:03:39;4.82;;;3.08;;
32824;SDS011;51060;42.640;24.356;2023-05-28T04:06:04;3.75;;;3.45;;
32824;SDS011;51060;42.640;24.356;2023-05-28T04:08:32;2.35;;;1.90;;
32824;SDS011;51060;42.640;24.356;2023-05-28T04:10:58;2.65;;;1.88;;
32824;SDS011;51060;42.640;24.356;2023-05-28T04:13:24;1.80;;;1.70;;
32824;SDS011;51060;42.640;24.356;2023-05-28T04:15:50;2.53;;;1.80;;
32824;SDS011;51060;42.640;24.356;2023-05-28T04:18:15;5.00;;;4.60;;
32824;SDS011;51060;42.640;24.356;2023-05-28T04:20:41;2.95;;;2.00;;
32824;SDS011;51060;42.640;24.356;2023-05-28T04:23:07;3.38;;;2.90;;
32824;SDS011;51060;42.640;24.356;2023-05-28T04:25:35;5.00;;;4.60;;
32824;SDS011;51060;42.640;24.356;2023-05-28T04:28:02;4.05;;;3.40;;
32824;SDS011;51060;42.640;24.356;2023-05-28T04:30:28;4.75;;;3.78;;
32824;SDS011;51060;42.640;24.356;2023-05-28T04:32:53;4.93;;;3.20;;
32824;SDS011;51060;42.640;24.356;2023-05-28T04:35:20;6.45;;;3.00;;
32824;SDS011;51060;42.640;24.356;2023-05-28T04:37:46;5.05;;;4.07;;
32824;SDS011;51060;42.640;24.356;2023-05-28T04:40:12;4.13;;;3.72;;
32824;SDS011;51060;42.640;24.356;2023-05-28T04:42:38;4.10;;;3.28;;
32824;SDS011;51060;42.640;24.356;2023-05-28T04:45:06;2.60;;;2.40;;
32824;SDS011;51060;42.640;24.356;2023-05-28T04:47:33;4.05;;;3.15;;
32824;SDS011;51060;42.640;24.356;2023-05-28T04:50:00;5.22;;;2.97;;
32824;SDS011;51060;42.640;24.356;2023-05-28T04:52:28;3.92;;;3.47;;
32824;SDS011;51060;42.640;24.356;2023-05-28T04:54:57;5.00;;;3.42;;
32824;SDS011;51060;42.640;24.356;2023-05-28T04:57:22;4.88;;;4.22;;
32824;SDS011;51060;42.640;24.356;2023-05-28T04:59:48;4.30;;;3.90;;
32824;SDS011;51060;42.640;24.356;2023-05-28T05:02:14;5.03;;;3.72;;
32824;SDS011;51060;42.640;24.356;2023-05-28T05:04:42;3.58;;;3.28;;
32824;SDS011;51060;42.640;24.356;2023-05-28T05:07:07;5.28;;;4.28;;
32824;SDS011;51060;42.640;24.356;2023-05-28T05:09:33;6.00;;;4.95;;
32824;SDS011;51060;42.640;24.356;2023-05-28T05:11:58;5.80;;;5.20;;
32824;SDS011;51060;42.640;24.356;2023-05-28T05:14:24;7.07;;;5.60;;
32824;SDS011;51060;42.640;24.356;2023-05-28T05:16:50;6.10;;;5.00;;
32824;SDS011;51060;42.640;24.356;2023-05-28T05:19:15;5.93;;;5.15;;
32824;SDS011;51060;42.640;24.356;2023-05-28T05:21:41;7.63;;;5.60;;
32824;SDS011;51060;42.640;24.356;2023-05-28T05:24:06;9.25;;;7.05;;
32824;SDS011;51060;42.640;24.356;2023-05-28T05:26:32;7.07;;;5.05;;
32824;SDS011;51060;42.640;24.356;2023-05-28T05:28:57;6.85;;;6.07;;
32824;SDS011;51060;42.640;24.356;2023-05-28T05:31:23;5.03;;;4.53;;
32824;SDS011;51060;42.640;24.356;2023-05-28T05:33:48;4.60;;;3.47;;
32824;SDS011;51060;42.640;24.356;2023-05-28T05:36:14;6.03;;;3.63;;
32824;SDS011;51060;42.640;24.356;2023-05-28T05:38:40;5.18;;;3.17;;
32824;SDS011;51060;42.640;24.356;2023-05-28T05:41:13;4.93;;;3.67;;
32824;SDS011;51060;42.640;24.356;2023-05-28T05:43:38;4.90;;;4.00;;
32824;SDS011;51060;42.640;24.356;2023-05-28T05:46:04;6.22;;;5.30;;
32824;SDS011;51060;42.640;24.356;2023-05-28T05:48:30;6.68;;;5.35;;
32824;SDS011;51060;42.640;24.356;2023-05-28T05:50:55;5.55;;;4.25;;
32824;SDS011;51060;42.640;24.356;2023-05-28T05:53:23;3.83;;;3.42;;
32824;SDS011;51060;42.640;24.356;2023-05-28T05:55:49;5.95;;;4.07;;
32824;SDS011;51060;42.640;24.356;2023-05-28T05:58:15;5.25;;;4.20;;
32824;SDS011;51060;42.640;24.356;2023-05-28T06:00:41;5.30;;;4.05;;
32824;SDS011;51060;42.640;24.356;2023-05-28T06:03:07;4.63;;;4.10;;
32824;SDS011;51060;42.640;24.356;2023-05-28T06:05:35;4.28;;;3.70;;
32824;SDS011;51060;42.640;24.356;2023-05-28T06:08:01;4.90;;;3.80;;
32824;SDS011;51060;42.640;24.356;2023-05-28T06:10:30;9.52;;;5.35;;
32824;SDS011;51060;42.640;24.356;2023-05-28T06:12:56;5.88;;;3.60;;
32824;SDS011;51060;42.640;24.356;2023-05-28T06:15:26;6.03;;;4.43;;
32824;SDS011;51060;42.640;24.356;2023-05-28T06:17:52;4.57;;;3.80;;
32824;SDS011;51060;42.640;24.356;2023-05-28T06:20:17;7.72;;;4.43;;
32824;SDS011;51060;42.640;24.356;2023-05-28T06:22:44;6.60;;;5.18;;
32824;SDS011;51060;42.640;24.356;2023-05-28T06:25:10;6.05;;;4.43;;
32824;SDS011;51060;42.640;24.356;2023-05-28T06:27:37;4.80;;;4.35;;
32824;SDS011;51060;42.640;24.356;2023-05-28T06:30:05;6.10;;;4.22;;
32824;SDS011;51060;42.640;24.356;2023-05-28T06:32:31;4.57;;;4.10;;
32824;SDS011;51060;42.640;24.356;2023-05-28T06:34:56;5.53;;;3.72;;
32824;SDS011;51060;42.640;24.356;2023-05-28T06:37:25;4.93;;;3.45;;
32824;SDS011;51060;42.640;24.356;2023-05-28T06:39:50;4.35;;;3.47;;
32824;SDS011;51060;42.640;24.356;2023-05-28T06:42:16;5.38;;;3.75;;
32824;SDS011;51060;42.640;24.356;2023-05-28T06:44:42;5.93;;;4.38;;
32824;SDS011;51060;42.640;24.356;2023-05-28T06:47:07;4.15;;;3.75;;
32824;SDS011;51060;42.640;24.356;2023-05-28T06:49:33;4.55;;;3.67;;
32824;SDS011;51060;42.640;24.356;2023-05-28T06:51:58;5.78;;;4.25;;
32824;SDS011;51060;42.640;24.356;2023-05-28T06:54:24;8.10;;;4.68;;
32824;SDS011;51060;42.640;24.356;2023-05-28T06:56:50;4.40;;;3.63;;
32824;SDS011;51060;42.640;24.356;2023-05-28T06:59:15;5.68;;;4.28;;
32824;SDS011;51060;42.640;24.356;2023-05-28T07:01:41;7.45;;;4.28;;
32824;SDS011;51060;42.640;24.356;2023-05-28T07:04:07;5.55;;;3.97;;
32824;SDS011;51060;42.640;24.356;2023-05-28T07:06:32;5.07;;;3.85;;
32824;SDS011;51060;42.640;24.356;2023-05-28T07:08:59;5.72;;;4.43;;
32824;SDS011;51060;42.640;24.356;2023-05-28T07:11:25;6.25;;;4.20;;
32824;SDS011;51060;42.640;24.356;2023-05-28T07:13:52;6.22;;;4.05;;
32824;SDS011;51060;42.640;24.356;2023-05-28T07:16:20;6.75;;;5.55;;
32824;SDS011;51060;42.640;24.356;2023-05-28T07:18:45;8.15;;;6.20;;
32824;SDS011;51060;42.640;24.356;2023-05-28T07:21:11;7.57;;;5.30;;
32824;SDS011;51060;42.640;24.356;2023-05-28T07:23:37;6.05;;;4.90;;
32824;SDS011;51060;42.640;24.356;2023-05-28T07:26:05;5.47;;;4.40;;
32824;SDS011;51060;42.640;24.356;2023-05-28T07:28:31;6.78;;;4.32;;
32824;SDS011;51060;42.640;24.356;2023-05-28T07:30:57;4.78;;;3.90;;
32824;SDS011;51060;42.640;24.356;2023-05-28T07:33:22;5.20;;;3.90;;
32824;SDS011;51060;42.640;24.356;2023-05-28T07:35:48;3.75;;;2.70;;
32824;SDS011;51060;42.640;24.356;2023-05-28T07:38:13;6.43;;;4.32;;
32824;SDS011;51060;42.640;24.356;2023-05-28T07:40:40;5.47;;;4.18;;
32824;SDS011;51060;42.640;24.356;2023-05-28T07:43:06;6.78;;;4.43;;
32824;SDS011;51060;42.640;24.356;2023-05-28T07:45:31;6.38;;;4.60;;
32824;SDS011;51060;42.640;24.356;2023-05-28T07:47:57;8.23;;;6.20;;
32824;SDS011;51060;42.640;24.356;2023-05-28T07:50:22;5.05;;;4.22;;
32824;SDS011;51060;42.640;24.356;2023-05-28T07:52:48;6.70;;;4.45;;
32824;SDS011;51060;42.640;24.356;2023-05-28T07:55:14;3.72;;;3.33;;
32824;SDS011;51060;42.640;24.356;2023-05-28T07:57:40;3.78;;;3.35;;
32824;SDS011;51060;42.640;24.356;2023-05-28T08:00:06;5.18;;;3.90;;
32824;SDS011;51060;42.640;24.356;2023-05-28T08:02:35;7.25;;;4.65;;
32824;SDS011;51060;42.640;24.356;2023-05-28T08:05:00;11.20;;;7.70;;
32824;SDS011;51060;42.640;24.356;2023-05-28T08:07:27;7.72;;;5.70;;
32824;SDS011;51060;42.640;24.356;2023-05-28T08:09:53;8.55;;;6.82;;
32824;SDS011;51060;42.640;24.356;2023-05-28T08:12:19;6.18;;;4.40;;
32824;SDS011;51060;42.640;24.356;2023-05-28T08:14:45;8.88;;;4.80;;
32824;SDS011;51060;42.640;24.356;2023-05-28T08:17:10;6.38;;;3.28;;
32824;SDS011;51060;42.640;24.356;2023-05-28T08:19:36;12.13;;;10.40;;
32824;SDS011;51060;42.640;24.356;2023-05-28T08:22:02;6.90;;;5.85;;
32824;SDS011;51060;42.640;24.356;2023-05-28T08:24:30;6.10;;;4.75;;
32824;SDS011;51060;42.640;24.356;2023-05-28T08:26:56;3.00;;;2.42;;
32824;SDS011;51060;42.640;24.356;2023-05-28T08:29:21;3.25;;;2.72;;
32824;SDS011;51060;42.640;24.356;2023-05-28T08:31:47;33.53;;;23.67;;
32824;SDS011;51060;42.640;24.356;2023-05-28T08:34:13;11.68;;;8.23;;
32824;SDS011;51060;42.640;24.356;2023-05-28T08:36:38;4.95;;;3.70;;
32824;SDS011;51060;42.640;24.356;2023-05-28T08:39:04;3.05;;;2.75;;
32824;SDS011;51060;42.640;24.356;2023-05-28T08:41:30;2.13;;;1.90;;
32824;SDS011;51060;42.640;24.356;2023-05-28T08:43:55;4.00;;;3.05;;
32824;SDS011;51060;42.640;24.356;2023-05-28T08:46:21;6.03;;;4.60;;
32824;SDS011;51060;42.640;24.356;2023-05-28T08:48:47;8.82;;;7.75;;
32824;SDS011;51060;42.640;24.356;2023-05-28T08:51:14;9.07;;;8.10;;
32824;SDS011;51060;42.640;24.356;2023-05-28T08:53:45;4.68;;;3.47;;
32824;SDS011;51060;42.640;24.356;2023-05-28T08:56:12;9.85;;;7.90;;
32824;SDS011;51060;42.640;24.356;2023-05-28T08:58:38;3.55;;;3.00;;
32824;SDS011;51060;42.640;24.356;2023-05-28T09:01:04;3.03;;;2.20;;
32824;SDS011;51060;42.640;24.356;2023-05-28T09:03:33;4.43;;;2.85;;
32824;SDS011;51060;42.640;24.356;2023-05-28T09:05:59;4.88;;;4.38;;
32824;SDS011;51060;42.640;24.356;2023-05-28T09:08:26;5.18;;;3.45;;
32824;SDS011;51060;42.640;24.356;2023-05-28T09:10:51;2.72;;;2.47;;
32824;SDS011;51060;42.640;24.356;2023-05-28T09:13:20;6.18;;;4.70;;
32824;SDS011;51060;42.640;24.356;2023-05-28T09:15:52;4.30;;;3.85;;
32824;SDS011;51060;42.640;24.356;2023-05-28T09:18:21;4.10;;;3.05;;
32824;SDS011;51060;42.640;24.356;2023-05-28T09:20:47;5.78;;;5.20;;
32824;SDS011;51060;42.640;24.356;2023-05-28T09:23:15;8.25;;;5.18;;
32824;SDS011;51060;42.640;24.356;2023-05-28T09:25:42;4.75;;;4.10;;
32824;SDS011;51060;42.640;24.356;2023-05-28T09:28:10;3.33;;;2.40;;
32824;SDS011;51060;42.640;24.356;2023-05-28T09:30:37;4.28;;;3.28;;
32824;SDS011;51060;42.640;24.356;2023-05-28T09:33:03;4.90;;;4.40;;
32824;SDS011;51060;42.640;24.356;2023-05-28T09:35:30;7.10;;;5.38;;
32824;SDS011;51060;42.640;24.356;2023-05-28T09:38:06;3.38;;;2.53;;
32824;SDS011;51060;42.640;24.356;2023-05-28T09:40:39;5.95;;;4.03;;
32824;SDS011;51060;42.640;24.356;2023-05-28T09:43:09;1.55;;;1.40;;
32824;SDS011;51060;42.640;24.356;2023-05-28T09:45:35;4.78;;;4.05;;
32824;SDS011;51060;42.640;24.356;2023-05-28T09:48:01;5.32;;;4.70;;
32824;SDS011;51060;42.640;24.356;2023-05-28T09:50:27;10.60;;;8.55;;
32824;SDS011;51060;42.640;24.356;2023-05-28T09:52:56;2.13;;;1.83;;
32824;SDS011;51060;42.640;24.356;2023-05-28T09:55:24;2.55;;;1.38;;
32824;SDS011;51060;42.640;24.356;2023-05-28T10:00:30;3.28;;;1.98;;
32824;SDS011;51060;42.640;24.356;2023-05-28T10:03:00;2.28;;;1.67;;
32824;SDS011;51060;42.640;24.356;2023-05-28T10:05:36;2.63;;;2.05;;
32824;SDS011;51060;42.640;24.356;2023-05-28T10:08:02;4.10;;;2.78;;
32824;SDS011;51060;42.640;24.356;2023-05-28T10:10:28;4.18;;;3.72;;
32824;SDS011;51060;42.640;24.356;2023-05-28T10:12:55;7.95;;;6.35;;
32824;SDS011;51060;42.640;24.356;2023-05-28T10:15:20;9.10;;;7.43;;
32824;SDS011;51060;42.640;24.356;2023-05-28T10:17:47;12.18;;;9.07;;
32824;SDS011;51060;42.640;24.356;2023-05-28T10:20:14;9.70;;;7.97;;
32824;SDS011;51060;42.640;24.356;2023-05-28T10:22:40;14.15;;;10.80;;
32824;SDS011;51060;42.640;24.356;2023-05-28T10:25:06;20.42;;;17.67;;
32824;SDS011;51060;42.640;24.356;2023-05-28T10:27:34;7.97;;;5.35;;
32824;SDS011;51060;42.640;24.356;2023-05-28T10:30:04;6.57;;;5.68;;
32824;SDS011;51060;42.640;24.356;2023-05-28T10:32:37;10.27;;;9.32;;
32824;SDS011;51060;42.640;24.356;2023-05-28T10:35:06;8.88;;;7.20;;
32824;SDS011;51060;42.640;24.356;2023-05-28T10:37:32;4.28;;;3.20;;
32824;SDS011;51060;42.640;24.356;2023-05-28T10:40:00;7.68;;;3.20;;
32824;SDS011;51060;42.640;24.356;2023-05-28T10:42:25;4.07;;;3.65;;
32824;SDS011;51060;42.640;24.356;2023-05-28T10:47:19;4.05;;;3.22;;
32824;SDS011;51060;42.640;24.356;2023-05-28T10:52:35;8.40;;;6.18;;
32824;SDS011;51060;42.640;24.356;2023-05-28T10:55:02;4.85;;;4.30;;
32824;SDS011;51060;42.640;24.356;2023-05-28T10:57:47;9.82;;;8.00;;
32824;SDS011;51060;42.640;24.356;2023-05-28T11:00:21;15.43;;;10.10;;
32824;SDS011;51060;42.640;24.356;2023-05-28T11:02:50;9.52;;;6.07;;
32824;SDS011;51060;42.640;24.356;2023-05-28T11:05:17;6.43;;;3.95;;
32824;SDS011;51060;42.640;24.356;2023-05-28T11:07:42;6.15;;;3.22;;
32824;SDS011;51060;42.640;24.356;2023-05-28T11:10:09;3.63;;;2.80;;
32824;SDS011;51060;42.640;24.356;2023-05-28T11:12:39;4.90;;;4.25;;
32824;SDS011;51060;42.640;24.356;2023-05-28T11:15:06;5.72;;;4.90;;
32824;SDS011;51060;42.640;24.356;2023-05-28T11:17:45;6.25;;;4.43;;
32824;SDS011;51060;42.640;24.356;2023-05-28T11:20:15;4.78;;;4.28;;
32824;SDS011;51060;42.640;24.356;2023-05-28T11:22:51;8.05;;;6.15;;
32824;SDS011;51060;42.640;24.356;2023-05-28T11:25:17;7.47;;;5.13;;
32824;SDS011;51060;42.640;24.356;2023-05-28T11:27:46;5.65;;;4.75;;
32824;SDS011;51060;42.640;24.356;2023-05-28T11:30:15;5.65;;;3.83;;
32824;SDS011;51060;42.640;24.356;2023-05-28T11:32:43;7.65;;;4.85;;
32824;SDS011;51060;42.640;24.356;2023-05-28T11:35:10;7.32;;;5.00;;
32824;SDS011;51060;42.640;24.356;2023-05-28T11:37:39;13.27;;;8.68;;
32824;SDS011;51060;42.640;24.356;2023-05-28T11:40:07;13.48;;;10.35;;
32824;SDS011;51060;42.640;24.356;2023-05-28T11:42:37;3.70;;;3.33;;
32824;SDS011;51060;42.640;24.356;2023-05-28T11:45:04;4.85;;;3.60;;
32824;SDS011;51060;42.640;24.356;2023-05-28T11:47:32;5.88;;;4.47;;
32824;SDS011;51060;42.640;24.356;2023-05-28T11:49:58;5.75;;;4.28;;
32824;SDS011;51060;42.640;24.356;2023-05-28T11:52:24;5.35;;;3.70;;
32824;SDS011;51060;42.640;24.356;2023-05-28T11:54:54;4.13;;;3.72;;
32824;SDS011;51060;42.640;24.356;2023-05-28T11:57:25;5.13;;;2.72;;
32824;SDS011;51060;42.640;24.356;2023-05-28T12:00:02;3.53;;;3.22;;
32824;SDS011;51060;42.640;24.356;2023-05-28T12:02:51;6.65;;;3.22;;
32824;SDS011;51060;42.640;24.356;2023-05-28T12:05:19;4.93;;;3.83;;
32824;SDS011;51060;42.640;24.356;2023-05-28T12:07:48;3.38;;;2.80;;
32824;SDS011;51060;42.640;24.356;2023-05-28T12:10:16;4.88;;;3.08;;
32824;SDS011;51060;42.640;24.356;2023-05-28T12:12:48;3.15;;;2.50;;
32824;SDS011;51060;42.640;24.356;2023-05-28T12:15:15;3.67;;;2.78;;
32824;SDS011;51060;42.640;24.356;2023-05-28T12:17:42;3.45;;;2.25;;
32824;SDS011;51060;42.640;24.356;2023-05-28T12:22:40;2.88;;;2.55;;
32824;SDS011;51060;42.640;24.356;2023-05-28T12:25:06;3.80;;;3.33;;
32824;SDS011;51060;42.640;24.356;2023-05-28T12:27:32;7.63;;;5.75;;
32824;SDS011;51060;42.640;24.356;2023-05-28T12:29:58;5.22;;;3.80;;
32824;SDS011;51060;42.640;24.356;2023-05-28T12:32:23;3.67;;;2.88;;
32824;SDS011;51060;42.640;24.356;2023-05-28T12:34:49;4.70;;;2.90;;
32824;SDS011;51060;42.640;24.356;2023-05-28T12:37:17;4.90;;;3.85;;
32824;SDS011;51060;42.640;24.356;2023-05-28T12:39:43;6.50;;;3.45;;
32824;SDS011;51060;42.640;24.356;2023-05-28T12:42:09;4.18;;;3.78;;
32824;SDS011;51060;42.640;24.356;2023-05-28T12:44:35;5.32;;;3.53;;
32824;SDS011;51060;42.640;24.356;2023-05-28T12:47:00;5.70;;;4.05;;
32824;SDS011;51060;42.640;24.356;2023-05-28T12:49:26;6.03;;;3.55;;
32824;SDS011;51060;42.640;24.356;2023-05-28T12:51:52;3.03;;;2.70;;
32824;SDS011;51060;42.640;24.356;2023-05-28T12:54:17;5.35;;;2.70;;
32824;SDS011;51060;42.640;24.356;2023-05-28T12:56:43;4.95;;;3.25;;
32824;SDS011;51060;42.640;24.356;2023-05-28T12:59:23;7.22;;;3.58;;
32824;SDS011;51060;42.640;24.356;2023-05-28T13:01:50;4.22;;;3.22;;
32824;SDS011;51060;42.640;24.356;2023-05-28T13:04:16;7.60;;;3.53;;
32824;SDS011;51060;42.640;24.356;2023-05-28T13:06:42;4.57;;;3.60;;
32824;SDS011;51060;42.640;24.356;2023-05-28T13:09:09;4.20;;;3.30;;
32824;SDS011;51060;42.640;24.356;2023-05-28T13:11:37;5.97;;;3.47;;
32824;SDS011;51060;42.640;24.356;2023-05-28T13:14:03;8.63;;;3.28;;
32824;SDS011;51060;42.640;24.356;2023-05-28T13:16:28;6.90;;;5.45;;
32824;SDS011;51060;42.640;24.356;2023-05-28T13:18:54;6.53;;;4.68;;
32824;SDS011;51060;42.640;24.356;2023-05-28T13:21:21;7.32;;;4.55;;
32824;SDS011;51060;42.640;24.356;2023-05-28T13:23:47;5.22;;;3.50;;
32824;SDS011;51060;42.640;24.356;2023-05-28T13:26:13;7.10;;;4.13;;
32824;SDS011;51060;42.640;24.356;2023-05-28T13:28:39;7.32;;;4.63;;
32824;SDS011;51060;42.640;24.356;2023-05-28T13:31:04;6.43;;;4.43;;
32824;SDS011;51060;42.640;24.356;2023-05-28T13:33:30;5.95;;;4.10;;
32824;SDS011;51060;42.640;24.356;2023-05-28T13:35:55;6.78;;;3.85;;
32824;SDS011;51060;42.640;24.356;2023-05-28T13:38:21;5.00;;;3.15;;
32824;SDS011;51060;42.640;24.356;2023-05-28T13:40:46;4.93;;;3.70;;
32824;SDS011;51060;42.640;24.356;2023-05-28T13:43:12;5.95;;;4.40;;
32824;SDS011;51060;42.640;24.356;2023-05-28T13:45:39;3.42;;;2.92;;
32824;SDS011;51060;42.640;24.356;2023-05-28T13:48:05;6.90;;;3.83;;
32824;SDS011;51060;42.640;24.356;2023-05-28T13:50:34;5.50;;;3.10;;
32824;SDS011;51060;42.640;24.356;2023-05-28T13:52:59;4.63;;;3.10;;
32824;SDS011;51060;42.640;24.356;2023-05-28T13:55:25;3.72;;;2.58;;
32824;SDS011;51060;42.640;24.356;2023-05-28T13:57:51;3.85;;;2.67;;
32824;SDS011;51060;42.640;24.356;2023-05-28T14:00:17;6.25;;;4.40;;
32824;SDS011;51060;42.640;24.356;2023-05-28T14:02:43;6.57;;;4.50;;
32824;SDS011;51060;42.640;24.356;2023-05-28T14:05:10;4.68;;;3.33;;
32824;SDS011;51060;42.640;24.356;2023-05-28T14:07:35;4.95;;;3.53;;
32824;SDS011;51060;42.640;24.356;2023-05-28T14:10:03;4.47;;;2.30;;
32824;SDS011;51060;42.640;24.356;2023-05-28T14:12:29;3.85;;;2.42;;
32824;SDS011;51060;42.640;24.356;2023-05-28T14:14:54;5.32;;;2.65;;
32824;SDS011;51060;42.640;24.356;2023-05-28T14:17:20;5.25;;;3.50;;
32824;SDS011;51060;42.640;24.356;2023-05-28T14:19:45;5.25;;;3.15;;
32824;SDS011;51060;42.640;24.356;2023-05-28T14:22:11;4.28;;;3.08;;
32824;SDS011;51060;42.640;24.356;2023-05-28T14:24:36;4.30;;;3.67;;
32824;SDS011;51060;42.640;24.356;2023-05-28T14:27:03;7.70;;;3.67;;
32824;SDS011;51060;42.640;24.356;2023-05-28T14:29:29;4.10;;;3.70;;
32824;SDS011;51060;42.640;24.356;2023-05-28T14:31:55;4.40;;;2.90;;
32824;SDS011;51060;42.640;24.356;2023-05-28T14:34:21;4.47;;;3.08;;
32824;SDS011;51060;42.640;24.356;2023-05-28T14:36:47;5.45;;;3.17;;
32824;SDS011;51060;42.640;24.356;2023-05-28T14:39:13;6.30;;;4.95;;
32824;SDS011;51060;42.640;24.356;2023-05-28T14:41:38;5.60;;;3.63;;